Aspen, CO

6:12 AM MDT on October 24, 2014 (GMT -0600)
Aspen-Pitkin County / Sardy Field | Change Station
CLOSE
Current Station
Airport
Location: Aspen,
Elevation: 7822 ft
Nearby Weather Stations

Elev 7822 ft 39.23 °N, 106.87 °W | Updated 19 minutes ago

Clear
Clear
34 °F
Feels Like 34 °F
N
0
Wind Variable Wind from North

Today
High -- | Low -- °F
--% Chance of Precip.
Yesterday
High -- | Low -- °F
Precip. -- in
7:26 AM 6:16 PM
New Moon, 0% visible
Pressure 30.20 in
Visibility 10.0 miles
Clouds Clear
Dew Point 24 °F
Humidity 67%
Rainfall 0.00 in
Snow Depth 1 in , 0 in , 1 in
UV 0 out of 12
Pollen 1.80 out of 12
Air Quality Not available.
Flu Activity Sporadic
METAR KASE 241153Z AUTO 00000KT 10SM CLR 01/M04 A3037 RMK AO2 SLP227 T00111044 10044 20000 53001

More Conditions Fewer Conditions

Pressure 30.20 in
Visibility 10.0 miles
Clouds Clear
Dew Point 24 °F
Humidity 67%
Rainfall 0.00 in
Snow Depth 1 in , 0 in , 1 in
UV 0 out of 12
Pollen 1.80 out of 12
Air Quality Not available.
Flu Activity Sporadic
METAR KASE 241153Z AUTO 00000KT 10SM CLR 01/M04 A3037 RMK AO2 SLP227 T00111044 10044 20000 53001

More Conditions Fewer Conditions

10-Day Weather Forecast

Almanac

Astronomy

Oct. 24, 2014 Rise Set
Actual Time 7:26 AM MDT 6:16 PM MDT
Civil Twilight 6:59 AM MDT 6:43 PM MDT
Nautical Twilight 6:27 AM MDT 7:14 PM MDT
Astronomical Twilight 5:56 AM MDT 7:45 PM MDT
Moon 8:08 AM MDT 6:58 PM MDT
Length of Visible Light 11h 44m
Length of Day
10h 49m
Tomorrow will be 2m 22s shorter.
New Moon, 0% of the Moon is Illuminated
Today
New Moon
Oct 30
First Quarter
Nov 6
Full
Nov 14
Last Quarter
Nov 22
New

Today's Extremes

State Highs State Lows

Community

WunderPhotos

Upload Photos

1,764,530 photos uploaded!

Nearby

Snow Depth

Station Depth Elevation
Kiln 1 in 9600 ft
Nast Lake 0 in 8700 ft
Independence Pass 1 in 10600 ft
Schofield Pass 0 in 10700 ft
Ivanhoe 0 in 10400 ft

Earthquake Activity

City Distance Mag. Time & Date
No recent earthquake activity has been reported nearby.
Minimum magnitude displayed is 2.5.

Coastal Water Temperatures

Place Temperature
No Stations Reporting

Nearby Weather Stations